Погода Щемиловкана 2 недели

Смоленская область, Россия

25 мая-07 июня
  • 25мая
    Сегодня
    +9°
    +23°
    Ясно и безоблачно
    ВремяПогодаТемператураВлажностьДавлениеВетер, м/сВероятность осадков
    00:00Ясно и безоблачно+11°C55 %756 мм3.0 м/с2 %
    03:00Ясно и безоблачно+9°C59 %756 мм2.8 м/с2 %
    06:00Ясно и безоблачно+10°C62 %756 мм2.9 м/с2 %
    09:00Ясно и безоблачно+17°C51 %756 мм2.5 м/с2 %
    12:00Ясно и безоблачно+22°C40 %756 мм2.3 м/с2 %
    15:00Ясно и безоблачно+23°C35 %755 мм2.3 м/с2 %
    18:00Ясно и безоблачно+22°C36 %754 мм1.8 м/с2 %
    21:00Ясно и безоблачно+17°C53 %753 мм2.2 м/с2 %
  • 26мая
    Воскресенье
    +11°
    +25°
    Практически безоблачно
    ВремяПогодаТемператураВлажностьДавлениеВетер, м/сВероятность осадков
    00:00Ясно и безоблачно+12°C70 %753 мм2.9 м/с2 %
    03:00Облачно с прояснениями+10°C71 %753 мм2.6 м/с2 %
    06:00Облачно с прояснениями+11°C70 %753 мм1.6 м/с2 %
    09:00Практически безоблачно+19°C47 %753 мм1.6 м/с2 %
    12:00Практически безоблачно+23°C37 %753 мм1.6 м/с2 %
    15:00Практически безоблачно+25°C29 %752 мм2.1 м/с2 %
    18:00Ясно и безоблачно+24°C34 %752 мм3.2 м/с2 %
    21:00Ясно и безоблачно+18°C55 %752 мм2.4 м/с2 %
  • 27мая
    Понедельник
    +12°
    +25°
    Практически безоблачно
    ВремяПогодаТемператураВлажностьДавлениеВетер, м/сВероятность осадков
    00:00Ясно и безоблачно+13°C72 %752 мм1.9 м/с2 %
    03:00Ясно и безоблачно+13°C79 %752 мм1.8 м/с2 %
    06:00Ясно и безоблачно+13°C80 %752 мм1.8 м/с2 %
    09:00Ясно и безоблачно+20°C60 %753 мм2.1 м/с2 %
    12:00Практически безоблачно+23°C48 %753 мм2.6 м/с13 %
    15:00Практически безоблачно+24°C46 %752 мм2.3 м/с30 %
    18:00Практически безоблачно+23°C54 %752 мм2.4 м/с45 %
    21:00Практически безоблачно+20°C69 %751 мм2.4 м/с7 %
  • 28мая
    Вторник
    +12°
    +26°
    Практически безоблачно
    ВремяПогодаТемператураВлажностьДавлениеВетер, м/сВероятность осадков
    00:00Ясно и безоблачно+16°C83 %751 мм2.1 м/с2 %
    03:00Ясно и безоблачно+14°C90 %751 мм2.0 м/с2 %
    06:00Ясно и безоблачно+14°C87 %751 мм2.6 м/с2 %
    09:00Ясно и безоблачно+21°C64 %751 мм2.2 м/с2 %
    12:00Практически безоблачно+24°C50 %751 мм2.8 м/с2 %
    15:00Практически безоблачно+25°C48 %750 мм1.7 м/с13 %
    18:00Небольшая облачность+25°C48 %749 мм2.5 м/с17 %
    21:00Практически безоблачно+20°C72 %749 мм1.5 м/с14 %
  • 29мая
    Среда
    +13°
    +27°
    Небольшая облачность
    ВремяПогодаТемператураВлажностьДавлениеВетер, м/сВероятность осадков
    00:00Практически безоблачно+16°C83 %749 мм1.3 м/с2 %
    03:00Практически безоблачно+14°C89 %748 мм1.7 м/с2 %
    06:00Практически безоблачно+15°C84 %748 мм2.2 м/с2 %
    09:00Ясно и безоблачно+21°C59 %748 мм3.6 м/с2 %
    12:00Ясно и безоблачно+24°C44 %747 мм2.1 м/с8 %
    15:00Небольшая облачность+26°C39 %746 мм1.2 м/с16 %
    18:00Небольшая облачность, возможен дождь с грозой+24°C52 %745 мм0.6 м/с18 %
    21:00Ясно и безоблачно+20°C70 %745 мм2.0 м/с5 %
Мы используем cookies
Соглашаюсь